Time;durP1;ratioP1;P1;durP2;ratioP2;P2;SDS_P1;SDS_P2;PMS_P1;PMS_P2;Temp;Humidity;BMP_temperature;BMP_pressure;BME280_temperature;BME280_humidity;BME280_pressure;Samples;Min_cycle;Max_cycle;Signal;HPM_P1;HPM_P2
2022/11/20 00:02:20;;;;;;;19.05;8.65;;;;;;;4.62;59.43;99411.41;4378036;32;20144;-92
2022/11/20 00:04:45;;;;;;;22.90;9.82;;;;;;;4.74;59.44;99402.69;4406910;32;24361;-92
2022/11/20 00:07:10;;;;;;;18.17;7.93;;;;;;;4.74;59.44;99405.25;4397624;32;20522;-92
2022/11/20 00:09:36;;;;;;;18.62;7.35;;;;;;;4.83;59.45;99394.81;4410030;32;24285;-92
2022/11/20 00:12:01;;;;;;;20.73;8.63;;;;;;;4.85;59.44;99393.91;4397458;32;20101;-92
2022/11/20 00:14:27;;;;;;;23.30;10.40;;;;;;;4.63;59.43;99410.53;4385007;32;20093;-93
2022/11/20 00:16:52;;;;;;;21.48;9.30;;;;;;;4.76;59.44;99401.78;4397440;32;20114;-93
2022/11/20 00:19:30;;;;;;;20.73;9.60;;;;;;;4.76;59.44;99403.50;4410114;32;20391;-93
2022/11/20 00:21:55;;;;;;;21.52;9.32;;;;;;;4.54;59.43;99408.94;4397091;32;20138;-93
2022/11/20 00:24:43;;;;;;;21.83;9.93;;;;;;;4.58;59.43;99414.91;4385453;32;20165;-91
2022/11/20 00:27:11;;;;;;;22.30;9.35;;;;;;;4.82;59.45;99414.56;4381500;32;20136;-93
2022/11/20 00:29:46;;;;;;;;;;;;;;;;;;;;;
2022/11/20 00:32:29;;;;;;;24.48;10.15;;;;;;;4.63;59.43;99403.66;4411092;32;36583;-93
2022/11/20 00:35:05;;;;;;;24.20;9.80;;;;;;;4.76;59.44;99409.50;4396993;32;20102;-93
2022/11/20 00:42:47;;;;;;;21.95;10.60;;;;;;;4.47;59.42;99437.37;4362176;32;20132;-90
2022/11/20 00:44:47;;;;;;;21.20;9.40;;;;;;;4.51;59.43;99427.03;4323965;32;20091;-92
2022/11/20 00:47:13;;;;;;;25.00;10.00;;;;;;;4.58;59.43;99409.75;4337725;32;20095;-92
2022/11/20 00:49:38;;;;;;;20.42;9.10;;;;;;;4.54;59.43;99405.53;4395489;32;20169;-91
2022/11/20 00:52:04;;;;;;;19.00;8.20;;;;;;;4.88;59.45;99395.56;4385383;32;20110;-92
2022/11/20 00:54:29;;;;;;;18.12;7.57;;;;;;;4.96;59.46;99396.31;4394643;32;20128;-93
2022/11/20 00:56:57;;;;;;;17.25;6.68;;;;;;;5.01;59.46;99397.13;4395308;32;20094;-92
2022/11/20 00:59:22;;;;;;;15.35;7.30;;;;;;;5.08;59.45;99393.56;4383484;32;20158;-92
2022/11/20 01:01:48;;;;;;;13.55;6.30;;;;;;;5.03;59.46;99386.78;4385665;32;20219;-92
2022/11/20 01:04:13;;;;;;;17.37;7.47;;;;;;;5.03;59.46;99389.34;4385683;32;20136;-92
2022/11/20 01:06:39;;;;;;;15.95;6.32;;;;;;;5.03;59.46;99397.94;4398296;32;20152;-93
2022/11/20 01:09:10;;;;;;;14.20;6.22;;;;;;;4.89;59.45;99399.84;4408360;32;20106;-93
2022/11/20 01:11:37;;;;;;;13.30;6.65;;;;;;;4.75;59.44;99410.38;4388514;32;20143;-93
2022/11/20 01:14:05;;;;;;;18.20;8.18;;;;;;;4.82;59.45;99408.56;4395824;32;20111;-92
2022/11/20 01:16:32;;;;;;;19.75;8.20;;;;;;;4.67;59.44;99419.09;4390203;32;20132;-92
2022/11/20 01:18:59;;;;;;;20.35;8.48;;;;;;;4.63;59.43;99424.28;4384564;32;20071;-91
2022/11/20 01:21:35;;;;;;;20.10;8.65;;;;;;;4.62;59.43;99426.88;4397505;32;20223;-92
2022/11/20 01:24:00;;;;;;;19.20;8.43;;;;;;;4.71;59.43;99420.75;4397765;32;20226;-92
2022/11/20 01:26:28;;;;;;;17.60;8.40;;;;;;;4.86;59.44;99429.13;4382625;32;20391;-92
2022/11/20 01:28:54;;;;;;;19.70;8.20;;;;;;;4.87;59.45;99424.81;4384718;32;20114;-91
2022/11/20 01:31:24;;;;;;;16.70;7.62;;;;;;;4.68;59.44;99416.47;4400162;32;20163;-92
2022/11/20 01:33:51;;;;;;;17.40;8.05;;;;;;;4.67;59.44;99414.78;4383318;32;20124;-92
2022/11/20 01:36:19;;;;;;;16.75;7.75;;;;;;;4.66;59.44;99407.91;4386296;32;20133;-91
2022/11/20 01:38:47;;;;;;;17.83;7.65;;;;;;;4.70;59.43;99413.87;4377272;32;20110;-92
2022/11/20 01:43:20;;;;;;;16.77;7.68;;;;;;;4.54;59.43;99403.78;4408970;32;20170;-92
2022/11/20 01:44:01;;;;;;;17.83;7.45;;;;;;;4.52;59.43;99410.69;4413169;32;20458;-93
2022/11/20 01:46:27;;;;;;;18.00;7.40;;;;;;;4.33;59.41;99404.06;4410556;32;20094;-92
2022/11/20 01:49:09;;;;;;;19.75;9.32;;;;;;;4.48;59.42;99398.69;4408127;32;20110;-92
2022/11/20 01:51:52;;;;;;;19.23;8.32;;;;;;;4.57;59.43;99401.19;4410101;32;20176;-92
2022/11/20 01:54:39;;;;;;;16.67;7.32;;;;;;;4.45;59.42;99388.44;4386004;32;20170;-93
2022/11/20 01:57:04;;;;;;;18.23;7.65;;;;;;;4.18;59.41;99399.09;4397468;32;20755;-93
2022/11/20 01:59:32;;;;;;;21.90;8.48;;;;;;;4.39;59.42;99388.53;4397659;32;20164;-93
2022/11/20 02:01:57;;;;;;;20.70;8.90;;;;;;;4.56;59.43;99391.75;4387705;32;20093;-93
2022/11/20 02:04:23;;;;;;;26.23;9.15;;;;;;;4.44;59.43;99406.50;4397714;32;20146;-92
2022/11/20 02:07:01;;;;;;;23.52;9.68;;;;;;;4.36;59.42;99393.72;4398996;32;20116;-92
2022/11/20 02:09:27;;;;;;;20.12;8.85;;;;;;;4.25;59.41;99398.97;4384661;32;20105;-93
2022/11/20 02:11:52;;;;;;;24.55;9.60;;;;;;;4.30;59.42;99398.94;4384803;32;20169;-91
2022/11/20 02:14:18;;;;;;;23.33;9.98;;;;;;;4.51;59.43;99398.69;4385557;32;20135;-92
2022/11/20 02:16:45;;;;;;;24.58;9.82;;;;;;;4.49;59.42;99390.09;4397967;32;20093;-92
2022/11/20 02:19:26;;;;;;;21.87;8.95;;;;;;;4.36;59.43;99388.56;4409290;32;20110;-91
2022/11/20 02:22:06;;;;;;;22.67;8.38;;;;;;;4.52;59.43;99402.97;4398134;32;20254;-91
2022/11/20 02:24:31;;;;;;;21.45;10.15;;;;;;;4.44;59.42;99409.94;4397602;32;20488;-92
2022/11/20 02:26:56;;;;;;;22.20;9.95;;;;;;;4.44;59.43;99415.06;4401489;32;20090;-92
2022/11/20 02:29:57;;;;;;;24.30;9.68;;;;;;;4.54;59.43;99410.69;4409047;32;20395;-93
2022/11/20 02:32:28;;;;;;;22.37;9.63;;;;;;;4.54;59.43;99395.22;4399770;32;20488;-93
2022/11/20 02:34:53;;;;;;;22.90;10.38;;;;;;;4.57;59.43;99390.87;4398010;32;20105;-92
2022/11/20 02:37:19;;;;;;;24.45;9.45;;;;;;;4.81;59.45;99379.34;4397381;32;20160;-93
2022/11/20 02:39:49;;;;;;;21.15;9.82;;;;;;;4.75;59.44;99379.44;4386346;32;20105;-91
2022/11/20 02:42:14;;;;;;;24.95;10.55;;;;;;;4.80;59.45;99382.81;4397956;32;20105;-91
2022/11/20 02:44:39;;;;;;;25.85;10.73;;;;;;;4.85;59.44;99387.88;4380478;32;20582;-91
2022/11/20 02:47:05;;;;;;;26.62;10.50;;;;;;;4.98;59.45;99379.09;4381948;32;20143;-92
2022/11/20 02:49:30;;;;;;;24.45;10.65;;;;;;;4.99;59.45;99372.22;4394090;32;20163;-93
2022/11/20 02:51:56;;;;;;;22.60;10.63;;;;;;;4.78;59.44;99378.56;4384503;32;20156;-92
2022/11/20 02:54:21;;;;;;;27.10;11.35;;;;;;;5.02;59.46;99385.91;4406815;32;20134;-91
2022/11/20 02:56:46;;;;;;;25.08;10.25;;;;;;;5.10;59.46;99385.78;4393980;32;29184;-93
2022/11/20 02:59:12;;;;;;;22.65;10.75;;;;;;;4.99;59.45;99380.81;4397093;32;20174;-90
2022/11/20 03:01:38;;;;;;;26.45;11.55;;;;;;;5.03;59.46;99367.00;4401429;32;193886;-91
2022/11/20 03:04:04;;;;;;;26.02;11.43;;;;;;;5.11;59.46;99364.28;4401731;32;20086;-91
2022/11/20 03:06:29;;;;;;;25.92;10.50;;;;;;;5.17;59.47;99362.44;4373076;32;20173;-91
2022/11/20 03:08:54;;;;;;;28.48;11.25;;;;;;;4.91;59.45;99359.44;4396098;32;20149;-90
2022/11/20 03:11:20;;;;;;;32.13;11.93;;;;;;;4.80;59.45;99358.75;4389436;32;20126;-90
2022/11/20 03:13:45;;;;;;;32.53;12.02;;;;;;;4.95;59.46;99363.66;4396933;32;20094;-90
2022/11/20 03:16:21;;;;;;;30.45;12.68;;;;;;;4.91;59.45;99367.16;4392443;32;25269;-90
2022/11/20 03:18:46;;;;;;;36.78;12.65;;;;;;;4.99;59.45;99357.59;4386840;32;20728;-92
2022/11/20 03:21:12;;;;;;;36.55;13.27;;;;;;;4.94;59.46;99367.09;4391950;32;20154;-91
2022/11/20 03:23:38;;;;;;;37.97;13.95;;;;;;;4.98;59.45;99373.94;4392750;32;20144;-91
2022/11/20 03:26:10;;;;;;;30.20;13.13;;;;;;;4.91;59.45;99393.81;4381760;32;20455;-90
2022/11/20 03:28:36;;;;;;;31.92;12.63;;;;;;;4.94;59.46;99391.16;4395608;32;20129;-91
2022/11/20 03:31:09;;;;;;;36.05;13.23;;;;;;;5.01;59.46;99389.38;4379615;32;20123;-91
2022/11/20 03:33:34;;;;;;;27.02;11.77;;;;;;;5.07;59.46;99393.59;4394071;32;20158;-92
2022/11/20 03:36:08;;;;;;;28.62;12.35;;;;;;;5.22;59.46;99383.87;4382630;32;20466;-91
2022/11/20 03:38:33;;;;;;;29.85;11.73;;;;;;;5.11;59.46;99375.44;4403069;32;20815;-91
2022/11/20 03:41:03;;;;;;;29.65;13.05;;;;;;;5.12;59.46;99382.31;4385577;32;20145;-91
2022/11/20 03:43:28;;;;;;;29.63;13.13;;;;;;;5.13;59.46;99372.84;4382929;32;20090;-93
2022/11/20 03:45:54;;;;;;;31.05;11.75;;;;;;;5.09;59.46;99374.63;4394365;32;20827;-91
2022/11/20 03:48:19;;;;;;;27.42;12.50;;;;;;;5.06;59.46;99371.25;4384609;32;22356;-91
2022/11/20 03:50:47;;;;;;;32.92;13.45;;;;;;;5.19;59.47;99381.31;4385621;32;20169;-91
2022/11/20 03:53:13;;;;;;;31.60;12.63;;;;;;;5.06;59.46;99381.56;4384324;32;20152;-91
2022/11/20 03:55:38;;;;;;;32.58;14.77;;;;;;;5.12;59.46;99386.63;4382373;32;20144;-90
2022/11/20 03:58:04;;;;;;;31.20;13.43;;;;;;;5.22;59.46;99386.47;4381906;32;27158;-91
2022/11/20 04:00:29;;;;;;;30.25;13.98;;;;;;;5.06;59.45;99378.97;4382652;32;20549;-90
2022/11/20 04:02:59;;;;;;;27.87;12.40;;;;;;;5.24;59.46;99365.78;4382539;32;20089;-89
2022/11/20 04:05:24;;;;;;;29.85;11.73;;;;;;;5.28;59.46;99366.59;4394179;32;20154;-90
2022/11/20 04:07:50;;;;;;;29.58;12.57;;;;;;;5.22;59.46;99363.25;4395693;32;20122;-93
2022/11/20 04:10:15;;;;;;;29.23;11.48;;;;;;;5.03;59.46;99355.81;4380124;32;20152;-92
2022/11/20 04:12:40;;;;;;;33.22;13.55;;;;;;;5.03;59.46;99363.56;4382883;32;20093;-92
2022/11/20 04:15:07;;;;;;;29.87;12.05;;;;;;;5.16;59.46;99347.00;4383180;32;20201;-92
2022/11/20 04:17:33;;;;;;;26.83;10.93;;;;;;;5.13;59.46;99342.72;4395657;32;20791;-92
2022/11/20 04:19:58;;;;;;;29.92;10.68;;;;;;;5.11;59.46;99328.16;4395756;32;20101;-91
2022/11/20 04:22:24;;;;;;;28.25;11.68;;;;;;;5.12;59.46;99329.84;4393231;32;20511;-92
2022/11/20 04:24:49;;;;;;;22.65;9.77;;;;;;;5.31;59.47;99320.09;4382531;32;22650;-93
2022/11/20 04:27:15;;;;;;;25.02;10.35;;;;;;;5.17;59.47;99333.22;4394942;32;23340;-91
2022/11/20 04:29:40;;;;;;;23.80;10.48;;;;;;;5.23;59.46;99339.13;4383144;32;20449;-93
2022/11/20 04:32:05;;;;;;;23.65;10.55;;;;;;;5.19;59.47;99332.31;4407206;32;20134;-90
2022/11/20 04:34:31;;;;;;;24.40;10.27;;;;;;;5.07;59.46;99340.25;4391907;32;20130;-90
2022/11/20 04:36:56;;;;;;;23.75;9.45;;;;;;;5.13;59.46;99339.31;4385004;32;21316;-90
2022/11/20 04:39:22;;;;;;;25.67;9.98;;;;;;;5.17;59.47;99339.22;4392728;32;20435;-91
2022/11/20 04:41:47;;;;;;;24.98;10.45;;;;;;;5.05;59.46;99334.28;4382459;32;20137;-92
2022/11/20 04:44:12;;;;;;;25.70;10.82;;;;;;;5.08;59.45;99329.06;4390406;32;25398;-92
2022/11/20 04:46:41;;;;;;;22.33;9.90;;;;;;;5.02;59.46;99326.59;4395388;32;20166;-91
2022/11/20 04:49:07;;;;;;;25.75;9.30;;;;;;;5.00;59.45;99325.78;4380303;32;20118;-91
2022/11/20 04:54:21;;;;;;;24.75;10.68;;;;;;;5.06;59.46;99320.50;4396696;32;20116;-91
2022/11/20 04:56:50;;;;;;;23.38;9.68;;;;;;;5.06;59.45;99311.91;4380177;32;20118;-94
2022/11/20 04:59:15;;;;;;;28.77;10.02;;;;;;;5.01;59.45;99308.56;4380564;32;20118;-92
2022/11/20 05:01:51;;;;;;;23.87;10.05;;;;;;;5.14;59.46;99302.31;4392284;32;20145;-94
2022/11/20 05:11:00;;;;;;;27.60;11.23;;;;;;;4.90;59.45;99325.03;4399402;32;20106;-93
2022/11/20 05:13:25;;;;;;;22.02;9.50;;;;;;;4.95;59.46;99332.69;4396688;32;20133;-93
2022/11/20 05:15:50;;;;;;;25.02;10.27;;;;;;;5.20;59.47;99323.72;4381275;32;20142;-93
2022/11/20 05:18:16;;;;;;;29.35;10.65;;;;;;;5.02;59.46;99318.84;4384302;32;20105;-93
2022/11/20 05:20:41;;;;;;;26.80;11.50;;;;;;;5.10;59.46;99319.56;4382961;32;20158;-93
2022/11/20 05:23:07;;;;;;;23.05;9.98;;;;;;;5.19;59.47;99327.12;4384000;32;20415;-93
2022/11/20 05:25:32;;;;;;;25.55;9.88;;;;;;;5.08;59.46;99323.06;4405709;32;20368;-94
2022/11/20 05:27:57;;;;;;;25.37;10.32;;;;;;;5.06;59.46;99314.50;4383977;32;20125;-95
2022/11/20 05:30:25;;;;;;;25.40;10.43;;;;;;;5.05;59.46;99312.78;4385890;32;20121;-93
2022/11/20 05:32:58;;;;;;;24.25;10.75;;;;;;;5.18;59.47;99306.53;4408584;32;20082;-93
2022/11/20 05:35:25;;;;;;;25.33;11.75;;;;;;;5.21;59.46;99293.59;4398175;32;20098;-93
2022/11/20 05:38:24;;;;;;;;;;;;;;;;;;;;;
2022/11/20 05:44:39;;;;;;;33.58;12.60;;;;;;;5.48;59.48;99306.00;4424007;32;20116;-93
2022/11/20 05:47:09;;;;;;;30.45;11.55;;;;;;;5.40;59.48;99301.84;4397712;32;20113;-92
2022/11/20 05:49:35;;;;;;;33.45;12.80;;;;;;;5.46;59.48;99306.91;4386651;32;20175;-93
2022/11/20 05:52:02;;;;;;;33.03;13.13;;;;;;;5.44;59.48;99311.22;4402368;32;20879;-93
2022/11/20 05:54:28;;;;;;;49.00;20.05;;;;;;;5.40;59.48;99309.59;4385621;32;20115;-93
2022/11/20 05:56:59;;;;;;;23.75;10.75;;;;;;;5.22;59.46;99316.78;4411568;32;20081;-93
2022/11/20 05:59:24;;;;;;;24.60;9.95;;;;;;;5.42;59.48;99319.00;4393170;32;20132;-93
2022/11/20 06:02:32;;;;;;;;;;;;;;;;;;;;;
2022/11/20 06:05:21;;;;;;;24.90;9.63;;;;;;;5.26;59.47;99322.75;4410020;32;36544;-93
2022/11/20 06:07:46;;;;;;;20.73;10.35;;;;;;;5.17;59.47;99331.47;4399936;32;20168;-93
2022/11/20 06:10:11;;;;;;;23.58;10.25;;;;;;;5.22;59.47;99324.53;4401196;32;20483;-93
2022/11/20 06:12:37;;;;;;;23.38;9.65;;;;;;;5.38;59.47;99324.25;4396506;32;26728;-93
2022/11/20 06:15:04;;;;;;;24.30;10.80;;;;;;;5.27;59.47;99323.59;4396694;32;20113;-92
2022/11/20 06:17:29;;;;;;;22.05;10.60;;;;;;;5.28;59.47;99322.72;4407501;32;20090;-93
2022/11/20 06:19:54;;;;;;;23.42;10.77;;;;;;;5.32;59.48;99325.22;4385327;32;20121;-94
2022/11/20 06:22:20;;;;;;;23.17;9.52;;;;;;;5.27;59.47;99331.34;4384860;32;20148;-94
2022/11/20 06:24:45;;;;;;;23.90;10.63;;;;;;;5.21;59.47;99327.16;4397746;32;20116;-93
2022/11/20 06:27:11;;;;;;;24.23;10.63;;;;;;;5.12;59.46;99328.13;4384565;32;20130;-93
2022/11/20 06:29:36;;;;;;;20.80;9.07;;;;;;;5.15;59.46;99332.38;4396619;32;23715;-93
2022/11/20 06:32:01;;;;;;;26.00;10.85;;;;;;;5.12;59.47;99328.13;4384694;32;20152;-92
2022/11/20 06:34:30;;;;;;;23.58;9.80;;;;;;;5.01;59.46;99345.53;4385020;32;20140;-94
2022/11/20 06:36:55;;;;;;;25.58;10.77;;;;;;;4.99;59.46;99349.00;4390620;32;20097;-94
2022/11/20 06:39:21;;;;;;;23.92;9.80;;;;;;;5.12;59.46;99351.34;4396229;32;20418;-91
2022/11/20 06:42:56;;;;;;;24.83;10.00;;;;;;;5.07;59.46;99362.63;4397173;32;20101;-93
2022/11/20 06:45:23;;;;;;;20.67;9.23;;;;;;;4.78;59.44;99365.66;4385140;32;20097;-93
2022/11/20 06:47:49;;;;;;;26.23;10.05;;;;;;;4.92;59.45;99374.88;4381527;32;22060;-93
2022/11/20 06:50:14;;;;;;;22.15;9.82;;;;;;;5.11;59.46;99366.84;4403356;32;20142;-94
2022/11/20 06:52:40;;;;;;;20.62;9.73;;;;;;;5.17;59.47;99374.50;4394044;32;20471;-93
2022/11/20 06:55:06;;;;;;;22.15;9.38;;;;;;;5.16;59.46;99367.63;4385189;32;20928;-94
2022/11/20 06:57:31;;;;;;;26.50;10.65;;;;;;;5.06;59.46;99358.34;4383794;32;20387;-92
2022/11/20 06:59:57;;;;;;;23.23;10.65;;;;;;;5.20;59.47;99348.62;4406529;32;20450;-95
2022/11/20 07:02:22;;;;;;;22.23;11.00;;;;;;;5.25;59.47;99346.84;4393909;32;20189;-90
2022/11/20 07:04:48;;;;;;;28.05;10.60;;;;;;;5.37;59.47;99354.38;4392416;32;20490;-92
2022/11/20 07:07:13;;;;;;;21.92;10.15;;;;;;;5.44;59.48;99350.81;4384511;32;20115;-93
2022/11/20 07:09:39;;;;;;;21.00;9.07;;;;;;;5.67;59.49;99359.84;4394908;32;20132;-92
2022/11/20 07:12:04;;;;;;;22.48;10.27;;;;;;;5.63;59.49;99358.22;4382677;32;20150;-92
2022/11/20 07:14:30;;;;;;;25.15;10.90;;;;;;;5.74;59.49;99370.06;4410291;32;20149;-93
2022/11/20 07:16:55;;;;;;;22.67;10.88;;;;;;;5.51;59.48;99375.66;4404639;32;20755;-92
2022/11/20 07:19:21;;;;;;;22.42;9.40;;;;;;;5.54;59.49;99367.84;4382324;32;20134;-93
2022/11/20 07:21:46;;;;;;;21.33;9.80;;;;;;;5.60;59.48;99372.03;4373634;32;20133;-93
2022/11/20 07:24:12;;;;;;;24.45;10.60;;;;;;;5.50;59.48;99373.94;4394644;32;20196;-93
2022/11/20 07:26:37;;;;;;;26.08;10.10;;;;;;;5.57;59.49;99374.69;4392460;32;20112;-92
2022/11/20 07:29:03;;;;;;;23.73;10.38;;;;;;;5.50;59.48;99386.00;4391614;32;20158;-93
2022/11/20 07:31:28;;;;;;;21.87;11.15;;;;;;;5.47;59.48;99383.47;4379344;32;20114;-93
2022/11/20 07:33:54;;;;;;;21.45;9.60;;;;;;;5.51;59.48;99385.13;4390335;32;20400;-93
2022/11/20 07:36:19;;;;;;;24.02;10.25;;;;;;;5.54;59.49;99378.16;4382617;32;20141;-94
2022/11/20 07:38:45;;;;;;;24.50;10.48;;;;;;;5.47;59.48;99378.31;4381617;32;21344;-93
2022/11/20 07:41:10;;;;;;;22.45;9.45;;;;;;;5.53;59.49;99378.19;4381278;32;22034;-92
2022/11/20 07:43:35;;;;;;;28.48;10.30;;;;;;;5.60;59.48;99372.03;4379439;32;20098;-94
2022/11/20 07:46:01;;;;;;;22.05;10.27;;;;;;;5.62;59.49;99380.59;4400559;32;20085;-94
2022/11/20 07:48:26;;;;;;;27.45;11.63;;;;;;;5.59;59.49;99380.66;4383005;32;20166;-94
2022/11/20 07:50:55;;;;;;;24.12;10.45;;;;;;;5.71;59.49;99383.03;4382124;32;20513;-93
2022/11/20 07:53:21;;;;;;;29.17;12.10;;;;;;;5.71;59.50;99375.28;4394771;32;20085;-92
2022/11/20 07:55:47;;;;;;;27.42;11.27;;;;;;;5.65;59.49;99377.97;4394645;32;20151;-94
2022/11/20 07:58:13;;;;;;;22.98;11.40;;;;;;;5.77;59.50;99376.91;4370902;32;20126;-93
2022/11/20 08:00:39;;;;;;;25.92;11.07;;;;;;;6.01;59.51;99362.69;4381632;32;20183;-91
2022/11/20 08:03:04;;;;;;;27.13;11.57;;;;;;;5.87;59.50;99378.41;4381183;32;20379;-93
2022/11/20 08:05:30;;;;;;;25.02;11.73;;;;;;;5.97;59.51;99358.47;4384711;32;20142;-93
2022/11/20 08:07:55;;;;;;;26.37;12.25;;;;;;;6.12;59.51;99352.97;4371201;32;20135;-92
2022/11/20 08:10:21;;;;;;;33.30;16.12;;;;;;;6.39;59.53;99357.59;4395006;32;20121;-90
2022/11/20 08:16:02;;;;;;;25.58;11.73;;;;;;;6.53;59.54;99357.28;4407644;32;20189;-92
2022/11/20 08:18:27;;;;;;;24.25;11.30;;;;;;;6.64;59.54;99357.91;4394507;32;20469;-92
2022/11/20 08:20:52;;;;;;;30.20;12.98;;;;;;;6.75;59.55;99362.84;4382351;32;20117;-92
2022/11/20 08:23:18;;;;;;;26.35;11.10;;;;;;;6.73;59.56;99354.28;4383442;32;20471;-93
2022/11/20 08:25:43;;;;;;;22.65;10.73;;;;;;;6.96;59.57;99348.56;4381232;32;25908;-92
2022/11/20 08:28:09;;;;;;;23.27;10.10;;;;;;;7.15;59.57;99342.06;4382844;32;20106;-92
2022/11/20 08:30:35;;;;;;;23.70;11.07;;;;;;;7.15;59.57;99351.56;4391119;32;20485;-92
2022/11/20 08:33:08;;;;;;;27.37;11.60;;;;;;;7.27;59.58;99351.25;4405293;32;20608;-92
2022/11/20 08:35:37;;;;;;;23.20;11.00;;;;;;;7.27;59.58;99359.84;4383760;32;20769;-93
2022/11/20 08:38:03;;;;;;;29.42;11.95;;;;;;;7.33;59.59;99357.12;4395331;32;20172;-92
2022/11/20 08:40:29;;;;;;;28.77;12.15;;;;;;;7.33;59.59;99353.66;4395695;32;20094;-91
2022/11/20 08:42:54;;;;;;;24.00;9.90;;;;;;;7.39;59.58;99356.97;4382545;32;20116;-93
2022/11/20 08:45:19;;;;;;;26.65;10.35;;;;;;;7.52;59.59;99360.09;4382735;32;20205;-92
2022/11/20 08:47:45;;;;;;;21.45;10.27;;;;;;;7.66;59.60;99359.75;4382824;32;20154;-91
2022/11/20 08:50:12;;;;;;;21.80;10.18;;;;;;;7.70;59.61;99369.13;4382326;32;20109;-94
2022/11/20 08:52:37;;;;;;;23.95;10.75;;;;;;;7.82;59.61;99368.81;4392745;32;20106;-93
2022/11/20 08:55:04;;;;;;;22.52;9.98;;;;;;;7.60;59.60;99376.31;4407476;32;20422;-93
2022/11/20 08:57:33;;;;;;;20.67;9.95;;;;;;;7.69;59.61;99381.22;4402216;32;20172;-92
2022/11/20 08:59:59;;;;;;;24.35;10.85;;;;;;;7.70;59.61;99379.50;4395239;32;20500;-92
2022/11/20 09:02:24;;;;;;;21.50;9.82;;;;;;;7.73;59.60;99387.19;4382980;32;20094;-93
2022/11/20 09:04:50;;;;;;;24.87;9.70;;;;;;;7.67;59.60;99385.59;4407789;32;20540;-93
2022/11/20 09:07:15;;;;;;;22.52;10.15;;;;;;;7.75;59.61;99392.31;4395263;32;20496;-93
2022/11/20 09:09:40;;;;;;;22.90;10.48;;;;;;;7.91;59.61;99391.87;4395301;32;20102;-91
2022/11/20 09:12:06;;;;;;;23.27;10.57;;;;;;;7.79;59.61;99391.34;4390783;32;20138;-93
2022/11/20 09:14:31;;;;;;;25.00;11.77;;;;;;;7.83;59.61;99390.41;4382974;32;20141;-93
2022/11/20 09:16:57;;;;;;;22.75;11.25;;;;;;;7.35;59.59;99389.03;4382665;32;20473;-93
2022/11/20 09:19:23;;;;;;;21.73;10.60;;;;;;;7.43;59.59;99390.56;4382064;32;20128;-93
2022/11/20 09:21:49;;;;;;;25.35;11.73;;;;;;;7.53;59.59;99387.69;4389187;32;20102;-93
2022/11/20 09:24:14;;;;;;;24.17;11.30;;;;;;;7.46;59.59;99393.91;4381963;32;20129;-92
2022/11/20 09:26:40;;;;;;;21.58;10.00;;;;;;;7.46;59.59;99396.50;4386844;32;20200;-92
2022/11/20 09:29:05;;;;;;;23.33;9.70;;;;;;;7.33;59.59;99383.03;4385142;32;20176;-91
2022/11/20 09:31:31;;;;;;;23.85;10.90;;;;;;;7.29;59.58;99383.13;4396557;32;20082;-91
2022/11/20 09:33:56;;;;;;;24.30;10.88;;;;;;;7.32;59.58;99381.31;4393591;32;22612;-91
2022/11/20 09:36:21;;;;;;;22.67;10.05;;;;;;;7.26;59.58;99378.03;4399238;32;20099;-90
2022/11/20 09:39:53;;;;;;;25.10;10.75;;;;;;;7.19;59.58;99390.28;4381163;32;20185;-93
2022/11/20 09:42:55;;;;;;;28.10;11.40;;;;;;;7.10;59.58;99385.31;4380035;32;20107;-91
2022/11/20 09:45:18;;;;;;;25.88;10.95;;;;;;;7.14;59.57;99384.34;4401742;32;20427;-93
2022/11/20 09:47:54;;;;;;;26.67;11.93;;;;;;;7.14;59.57;99386.09;4394013;32;20164;-93
2022/11/20 09:50:29;;;;;;;24.45;10.93;;;;;;;7.23;59.58;99375.50;4392301;32;20070;-94
2022/11/20 09:53:25;;;;;;;31.42;11.93;;;;;;;7.27;59.58;99380.56;4393906;32;20842;-94
2022/11/20 09:55:50;;;;;;;29.58;12.93;;;;;;;7.28;59.58;99382.25;4394969;32;20858;-94
2022/11/20 10:01:56;;;;;;;26.30;13.82;;;;;;;7.32;59.58;99383.03;4304214;33;20146;-94
2022/11/20 10:04:22;;;;;;;30.15;13.55;;;;;;;7.05;59.57;99385.41;4336706;32;20159;-93
2022/11/20 10:07:05;;;;;;;33.38;18.00;;;;;;;7.02;59.57;99382.91;4359875;32;20098;-94
2022/11/20 10:09:36;;;;;;;27.73;12.60;;;;;;;7.11;59.58;99376.66;4407640;32;20106;-93
2022/11/20 10:12:14;;;;;;;28.73;11.95;;;;;;;7.36;59.59;99361.37;4395455;32;20113;-93
2022/11/20 10:14:47;;;;;;;38.70;17.73;;;;;;;7.32;59.58;99363.19;4408008;32;20094;-93
2022/11/20 10:21:27;;;;;;;90.38;40.08;;;;;;;7.64;59.60;99346.84;4394389;32;20114;-94
2022/11/20 10:25:06;;;;;;;33.72;15.27;;;;;;;7.74;59.61;99337.06;4380083;32;20105;-94
2022/11/20 10:28:16;;;;;;;50.30;20.90;;;;;;;7.79;59.61;99340.38;4352063;32;20608;-94
2022/11/20 10:30:42;;;;;;;56.45;28.98;;;;;;;7.75;59.60;99341.34;4399123;32;20174;-95
2022/11/20 10:33:21;;;;;;;33.67;17.02;;;;;;;7.87;59.62;99332.41;4386043;32;20101;-94
2022/11/20 10:36:05;;;;;;;34.20;18.20;;;;;;;7.77;59.62;99325.75;4386413;32;20499;-95
2022/11/20 10:38:43;;;;;;;28.90;14.95;;;;;;;7.80;59.61;99323.06;4425699;32;20089;-95
2022/11/20 10:41:24;;;;;;;28.02;12.82;;;;;;;7.88;59.62;99326.34;4399151;32;20093;-94
2022/11/20 10:44:03;;;;;;;31.05;14.23;;;;;;;7.98;59.62;99323.44;4378536;32;20109;-94
2022/11/20 10:46:37;;;;;;;27.10;13.13;;;;;;;8.14;59.63;99323.00;4396985;32;20465;-94
2022/11/20 10:49:04;;;;;;;28.40;11.93;;;;;;;8.05;59.62;99316.34;4410473;32;20823;-94
2022/11/20 10:51:37;;;;;;;27.55;12.10;;;;;;;8.10;59.63;99321.41;4385809;32;20098;-95
2022/11/20 10:54:38;;;;;;;25.08;12.32;;;;;;;8.08;59.63;99318.00;4411108;32;20725;-93
2022/11/20 10:57:40;;;;;;;32.08;13.77;;;;;;;8.07;59.63;99317.16;4393311;32;20106;-94
2022/11/20 11:00:10;;;;;;;29.35;12.88;;;;;;;7.98;59.62;99338.13;4410789;32;20118;-95
2022/11/20 11:02:49;;;;;;;;;;;;;;;7.82;59.61;99337.72;4399668;32;20062;-96
2022/11/20 11:05:30;;;;;;;32.05;13.25;;;;;;;7.99;59.63;99350.19;4396057;32;19997;-95
2022/11/20 11:07:56;;;;;;;38.22;19.02;;;;;;;7.93;59.62;99347.78;4425022;32;20125;-95
2022/11/20 11:10:28;;;;;;;34.60;15.02;;;;;;;8.03;59.62;99333.66;4386166;32;20086;-95
2022/11/20 11:12:53;;;;;;;82.80;35.35;;;;;;;8.19;59.63;99336.66;4378692;32;20097;-95
2022/11/20 11:15:45;;;;;;;158.35;80.30;;;;;;;8.25;59.64;99332.16;4394815;32;22213;-94
2022/11/20 11:18:10;;;;;;;62.08;29.87;;;;;;;8.12;59.63;99348.97;4411897;32;20124;-95
2022/11/20 11:20:36;;;;;;;45.63;23.95;;;;;;;8.08;59.63;99349.94;4385687;32;20086;-96
2022/11/20 11:23:01;;;;;;;38.45;18.12;;;;;;;8.24;59.64;99350.34;4401495;32;20115;-94
2022/11/20 11:25:33;;;;;;;41.05;18.95;;;;;;;8.12;59.63;99348.97;4382970;32;20102;-96
2022/11/20 11:28:17;;;;;;;77.47;35.10;;;;;;;8.16;59.63;99353.16;4385879;32;20110;-95
2022/11/20 11:30:44;;;;;;;151.32;52.13;;;;;;;8.31;59.64;99351.88;4420087;32;20121;-95
2022/11/20 11:33:18;;;;;;;210.15;76.82;;;;;;;8.29;59.63;99357.12;4389077;32;20088;-93
2022/11/20 11:35:45;;;;;;;40.03;21.12;;;;;;;8.31;59.64;99350.16;4385778;32;20179;-94
2022/11/20 11:38:14;;;;;;;41.97;20.90;;;;;;;8.56;59.65;99342.50;4385884;32;20113;-95
2022/11/20 11:40:40;;;;;;;40.92;21.75;;;;;;;8.41;59.65;99339.53;4383264;32;20116;-94
2022/11/20 11:45:04;;;;;;;38.00;19.90;;;;;;;8.35;59.64;99344.91;4386043;32;20266;-95
2022/11/20 11:45:55;;;;;;;28.38;13.18;;;;;;;8.35;59.64;99331.94;4402471;32;21578;-94
2022/11/20 11:48:20;;;;;;;31.42;16.95;;;;;;;8.52;59.66;99329.69;4391605;32;21046;-95
2022/11/20 11:50:50;;;;;;;38.05;17.20;;;;;;;8.60;59.66;99325.09;4395373;32;20113;-95
2022/11/20 11:53:20;;;;;;;38.15;17.33;;;;;;;8.36;59.64;99312.88;4390130;32;20088;-93
2022/11/20 11:56:29;;;;;;;53.38;22.23;;;;;;;8.09;59.63;99312.75;4399819;32;20132;-95
2022/11/20 11:58:55;;;;;;;82.40;38.70;;;;;;;8.24;59.64;99314.03;4425432;32;20109;-95
2022/11/20 12:05:09;;;;;;;136.90;64.65;;;;;;;8.32;59.65;99317.28;4398085;32;20078;-96
2022/11/20 12:07:41;;;;;;;41.80;22.42;;;;;;;8.40;59.65;99314.47;4408991;32;20102;-96
2022/11/20 12:10:30;;;;;;;40.85;21.83;;;;;;;8.69;59.66;99311.84;4405534;32;20073;-95
2022/11/20 12:13:03;;;;;;;37.45;19.67;;;;;;;8.79;59.66;99308.06;4327713;33;20117;-96
2022/11/20 12:15:31;;;;;;;70.15;33.75;;;;;;;8.70;59.66;99312.69;4395971;32;20094;-96
2022/11/20 12:17:57;;;;;;;36.38;17.42;;;;;;;8.52;59.66;99306.34;4405259;32;20105;-96